sensor_id;sensor_type;location;lat;lon;timestamp;pressure;altitude;pressure_sealevel;temperature;humidity
31062;BME280;17724;53.546;9.974;2023-05-21T00:00:17;102119.13;;;14.28;75.94
31062;BME280;17724;53.546;9.974;2023-05-21T00:04:19;102129.09;;;14.29;75.89
31062;BME280;17724;53.546;9.974;2023-05-21T00:08:20;102118.19;;;14.23;76.25
31062;BME280;17724;53.546;9.974;2023-05-21T00:12:21;102109.88;;;14.23;76.14
31062;BME280;17724;53.546;9.974;2023-05-21T00:16:22;102104.00;;;14.19;76.40
31062;BME280;17724;53.546;9.974;2023-05-21T00:20:22;102101.44;;;14.13;76.37
31062;BME280;17724;53.546;9.974;2023-05-21T00:24:23;102098.81;;;14.06;76.97
31062;BME280;17724;53.546;9.974;2023-05-21T00:28:23;102103.19;;;14.19;76.50
31062;BME280;17724;53.546;9.974;2023-05-21T00:32:24;102093.53;;;14.04;77.50
31062;BME280;17724;53.546;9.974;2023-05-21T00:36:24;102093.22;;;14.18;76.86
31062;BME280;17724;53.546;9.974;2023-05-21T00:40:25;102081.81;;;13.97;77.26
31062;BME280;17724;53.546;9.974;2023-05-21T00:44:26;102085.97;;;14.00;77.25
31062;BME280;17724;53.546;9.974;2023-05-21T00:48:27;102089.75;;;14.11;76.86
31062;BME280;17724;53.546;9.974;2023-05-21T00:52:27;102087.34;;;14.14;77.07
31062;BME280;17724;53.546;9.974;2023-05-21T00:56:28;102084.91;;;14.01;77.26
31062;BME280;17724;53.546;9.974;2023-05-21T01:00:33;102082.28;;;14.11;76.89
31062;BME280;17724;53.546;9.974;2023-05-21T01:04:34;102073.16;;;13.94;77.47
31062;BME280;17724;53.546;9.974;2023-05-21T01:08:35;102089.00;;;13.98;77.37
31062;BME280;17724;53.546;9.974;2023-05-21T01:12:42;102077.84;;;13.93;77.35
31062;BME280;17724;53.546;9.974;2023-05-21T01:16:44;102088.16;;;13.98;77.38
31062;BME280;17724;53.546;9.974;2023-05-21T01:20:46;102076.84;;;13.99;77.70
31062;BME280;17724;53.546;9.974;2023-05-21T01:24:50;102073.31;;;13.87;77.60
31062;BME280;17724;53.546;9.974;2023-05-21T01:28:52;102078.59;;;13.89;78.03
31062;BME280;17724;53.546;9.974;2023-05-21T01:33:02;102085.72;;;13.85;78.33
31062;BME280;17724;53.546;9.974;2023-05-21T01:37:20;102068.06;;;13.57;79.19
31062;BME280;17724;53.546;9.974;2023-05-21T01:41:23;102066.66;;;13.71;79.26
31062;BME280;17724;53.546;9.974;2023-05-21T01:45:26;102068.44;;;13.77;78.89
31062;BME280;17724;53.546;9.974;2023-05-21T01:49:28;102062.16;;;13.65;79.35
31062;BME280;17724;53.546;9.974;2023-05-21T01:53:29;102061.44;;;13.58;79.78
31062;BME280;17724;53.546;9.974;2023-05-21T01:57:30;102054.19;;;13.69;79.09
31062;BME280;17724;53.546;9.974;2023-05-21T02:01:31;102057.69;;;13.64;79.65
31062;BME280;17724;53.546;9.974;2023-05-21T02:05:34;102050.91;;;13.72;79.60
31062;BME280;17724;53.546;9.974;2023-05-21T02:09:34;102050.91;;;13.72;79.60
31062;BME280;17724;53.546;9.974;2023-05-21T02:13:35;102052.59;;;13.73;79.93
31062;BME280;17724;53.546;9.974;2023-05-21T02:17:41;102056.56;;;13.77;79.67
31062;BME280;17724;53.546;9.974;2023-05-21T02:21:44;102044.31;;;13.73;79.78
31062;BME280;17724;53.546;9.974;2023-05-21T02:25:45;102043.34;;;13.50;81.03
31062;BME280;17724;53.546;9.974;2023-05-21T02:29:46;102030.97;;;13.53;81.38
31062;BME280;17724;53.546;9.974;2023-05-21T02:33:46;102028.59;;;13.45;81.70
31062;BME280;17724;53.546;9.974;2023-05-21T02:37:47;102017.84;;;13.48;81.89
31062;BME280;17724;53.546;9.974;2023-05-21T02:41:48;102020.75;;;13.53;81.70
31062;BME280;17724;53.546;9.974;2023-05-21T02:45:49;102013.34;;;13.42;82.65
31062;BME280;17724;53.546;9.974;2023-05-21T02:49:51;102011.66;;;13.41;82.75
31062;BME280;17724;53.546;9.974;2023-05-21T02:53:52;102006.50;;;13.45;83.06
31062;BME280;17724;53.546;9.974;2023-05-21T02:57:53;102008.25;;;13.51;83.32
31062;BME280;17724;53.546;9.974;2023-05-21T03:01:53;102000.56;;;13.53;83.39
31062;BME280;17724;53.546;9.974;2023-05-21T03:05:54;102001.81;;;13.62;83.22
31062;BME280;17724;53.546;9.974;2023-05-21T03:09:54;101999.59;;;13.47;83.48
31062;BME280;17724;53.546;9.974;2023-05-21T03:13:55;102004.66;;;13.50;84.36
31062;BME280;17724;53.546;9.974;2023-05-21T03:17:56;102005.97;;;13.48;84.44
31062;BME280;17724;53.546;9.974;2023-05-21T03:21:57;102008.31;;;13.56;84.01
31062;BME280;17724;53.546;9.974;2023-05-21T03:25:57;102015.44;;;13.52;84.34
31062;BME280;17724;53.546;9.974;2023-05-21T03:29:58;102015.56;;;13.57;84.40
31062;BME280;17724;53.546;9.974;2023-05-21T03:33:58;101999.78;;;13.41;84.73
31062;BME280;17724;53.546;9.974;2023-05-21T03:38:03;102000.28;;;13.38;85.15
31062;BME280;17724;53.546;9.974;2023-05-21T03:42:03;102002.53;;;13.41;85.75
31062;BME280;17724;53.546;9.974;2023-05-21T03:46:12;102001.09;;;13.38;85.70
31062;BME280;17724;53.546;9.974;2023-05-21T03:50:18;101990.31;;;13.37;85.97
31062;BME280;17724;53.546;9.974;2023-05-21T03:54:19;101989.66;;;13.46;86.07
31062;BME280;17724;53.546;9.974;2023-05-21T03:58:23;101978.66;;;13.35;86.32
31062;BME280;17724;53.546;9.974;2023-05-21T04:02:25;101985.38;;;13.55;86.30
31062;BME280;17724;53.546;9.974;2023-05-21T04:06:26;101990.91;;;13.55;86.44
31062;BME280;17724;53.546;9.974;2023-05-21T04:10:29;101982.31;;;13.69;86.82
31062;BME280;17724;53.546;9.974;2023-05-21T04:14:30;101994.03;;;13.76;86.18
31062;BME280;17724;53.546;9.974;2023-05-21T04:18:30;101983.38;;;13.68;86.20
31062;BME280;17724;53.546;9.974;2023-05-21T04:22:33;101979.97;;;13.61;86.46
31062;BME280;17724;53.546;9.974;2023-05-21T04:26:37;101981.97;;;13.65;86.69
31062;BME280;17724;53.546;9.974;2023-05-21T04:30:41;101990.50;;;13.64;87.33
31062;BME280;17724;53.546;9.974;2023-05-21T04:34:42;101984.63;;;13.60;87.60
31062;BME280;17724;53.546;9.974;2023-05-21T04:38:42;101990.28;;;13.82;86.92
31062;BME280;17724;53.546;9.974;2023-05-21T04:42:44;101982.53;;;13.84;87.27
31062;BME280;17724;53.546;9.974;2023-05-21T04:46:52;101992.78;;;13.84;87.13
31062;BME280;17724;53.546;9.974;2023-05-21T04:50:54;101976.44;;;13.99;86.84
31062;BME280;17724;53.546;9.974;2023-05-21T04:54:56;101969.56;;;14.01;86.91
31062;BME280;17724;53.546;9.974;2023-05-21T04:58:57;101984.13;;;14.14;86.71
31062;BME280;17724;53.546;9.974;2023-05-21T05:02:58;101976.50;;;14.21;86.22
31062;BME280;17724;53.546;9.974;2023-05-21T05:06:58;101974.13;;;14.29;86.47
31062;BME280;17724;53.546;9.974;2023-05-21T05:10:59;101979.22;;;14.38;86.34
31062;BME280;17724;53.546;9.974;2023-05-21T05:15:00;101976.91;;;14.29;86.18
31062;BME280;17724;53.546;9.974;2023-05-21T05:19:01;101967.13;;;14.44;86.23
31062;BME280;17724;53.546;9.974;2023-05-21T05:23:03;101974.09;;;14.46;86.04
31062;BME280;17724;53.546;9.974;2023-05-21T05:27:03;101975.34;;;14.56;86.32
31062;BME280;17724;53.546;9.974;2023-05-21T05:31:04;101970.41;;;14.58;85.76
31062;BME280;17724;53.546;9.974;2023-05-21T05:35:06;101973.94;;;14.75;85.60
31062;BME280;17724;53.546;9.974;2023-05-21T05:39:07;101975.38;;;14.77;85.49
31062;BME280;17724;53.546;9.974;2023-05-21T05:43:08;101982.72;;;14.89;85.24
31062;BME280;17724;53.546;9.974;2023-05-21T05:47:08;101981.97;;;14.98;85.25
31062;BME280;17724;53.546;9.974;2023-05-21T05:51:11;101975.97;;;15.07;84.57
31062;BME280;17724;53.546;9.974;2023-05-21T05:55:12;101973.34;;;14.95;85.06
31062;BME280;17724;53.546;9.974;2023-05-21T05:59:13;101967.31;;;15.25;84.71
31062;BME280;17724;53.546;9.974;2023-05-21T06:03:20;101973.03;;;15.40;84.24
31062;BME280;17724;53.546;9.974;2023-05-21T06:07:20;101970.38;;;15.56;84.00
31062;BME280;17724;53.546;9.974;2023-05-21T06:11:21;101969.06;;;15.63;83.37
31062;BME280;17724;53.546;9.974;2023-05-21T06:15:21;101972.75;;;15.69;83.02
31062;BME280;17724;53.546;9.974;2023-05-21T06:19:22;101970.38;;;15.88;83.05
31062;BME280;17724;53.546;9.974;2023-05-21T06:23:23;101969.19;;;16.11;82.09
31062;BME280;17724;53.546;9.974;2023-05-21T06:27:23;101968.66;;;16.14;81.54
31062;BME280;17724;53.546;9.974;2023-05-21T06:31:24;101965.19;;;16.39;80.85
31062;BME280;17724;53.546;9.974;2023-05-21T06:35:24;101966.31;;;16.38;80.58
31062;BME280;17724;53.546;9.974;2023-05-21T06:39:25;101969.97;;;16.48;80.32
31062;BME280;17724;53.546;9.974;2023-05-21T06:43:26;101971.66;;;16.49;80.58
31062;BME280;17724;53.546;9.974;2023-05-21T06:47:59;101960.53;;;16.49;80.95
31062;BME280;17724;53.546;9.974;2023-05-21T06:52:00;101960.91;;;16.68;80.54
31062;BME280;17724;53.546;9.974;2023-05-21T06:56:01;101951.56;;;16.80;80.35
31062;BME280;17724;53.546;9.974;2023-05-21T07:00:14;101960.19;;;16.88;80.05
31062;BME280;17724;53.546;9.974;2023-05-21T07:04:16;101963.28;;;17.07;80.20
31062;BME280;17724;53.546;9.974;2023-05-21T07:08:17;101960.81;;;17.26;79.51
31062;BME280;17724;53.546;9.974;2023-05-21T07:12:19;101957.75;;;17.22;79.06
31062;BME280;17724;53.546;9.974;2023-05-21T07:16:21;101957.50;;;17.34;79.63
31062;BME280;17724;53.546;9.974;2023-05-21T07:20:22;101965.00;;;17.39;79.67
31062;BME280;17724;53.546;9.974;2023-05-21T07:24:26;101958.94;;;17.57;79.13
31062;BME280;17724;53.546;9.974;2023-05-21T07:28:27;101952.53;;;17.57;79.10
31062;BME280;17724;53.546;9.974;2023-05-21T07:32:28;101948.94;;;17.77;78.85
31062;BME280;17724;53.546;9.974;2023-05-21T07:36:28;101946.72;;;17.89;78.33
31062;BME280;17724;53.546;9.974;2023-05-21T07:40:30;101945.03;;;17.93;78.34
31062;BME280;17724;53.546;9.974;2023-05-21T07:44:30;101934.44;;;18.05;78.31
31062;BME280;17724;53.546;9.974;2023-05-21T07:48:31;101931.59;;;18.36;77.91
31062;BME280;17724;53.546;9.974;2023-05-21T07:52:34;101934.56;;;18.60;76.81
31062;BME280;17724;53.546;9.974;2023-05-21T07:56:35;101927.03;;;18.60;76.41
31062;BME280;17724;53.546;9.974;2023-05-21T08:00:42;101939.22;;;18.85;76.14
31062;BME280;17724;53.546;9.974;2023-05-21T08:04:44;101933.59;;;18.90;76.11
31062;BME280;17724;53.546;9.974;2023-05-21T08:08:45;101933.59;;;18.90;75.97
31062;BME280;17724;53.546;9.974;2023-05-21T08:12:46;101928.72;;;19.11;75.93
31062;BME280;17724;53.546;9.974;2023-05-21T08:16:46;101916.03;;;19.34;74.67
31062;BME280;17724;53.546;9.974;2023-05-21T08:20:47;101921.25;;;19.45;74.75
31062;BME280;17724;53.546;9.974;2023-05-21T08:24:50;101913.69;;;19.51;74.29
31062;BME280;17724;53.546;9.974;2023-05-21T08:28:50;101918.66;;;19.54;74.58
31062;BME280;17724;53.546;9.974;2023-05-21T08:32:51;101914.94;;;19.69;74.35
31062;BME280;17724;53.546;9.974;2023-05-21T08:36:53;101908.47;;;19.74;73.66
31062;BME280;17724;53.546;9.974;2023-05-21T08:41:15;101920.81;;;19.97;73.77
31062;BME280;17724;53.546;9.974;2023-05-21T08:45:21;101912.97;;;19.99;73.46
31062;BME280;17724;53.546;9.974;2023-05-21T08:49:25;101903.34;;;20.10;73.37
31062;BME280;17724;53.546;9.974;2023-05-21T08:53:26;101908.44;;;20.08;73.45
31062;BME280;17724;53.546;9.974;2023-05-21T08:57:27;101901.28;;;20.21;73.18
31062;BME280;17724;53.546;9.974;2023-05-21T09:01:31;101892.84;;;20.26;72.54
31062;BME280;17724;53.546;9.974;2023-05-21T09:05:57;101902.19;;;20.16;73.25
31062;BME280;17724;53.546;9.974;2023-05-21T09:10:03;101894.41;;;20.13;73.27
31062;BME280;17724;53.546;9.974;2023-05-21T09:14:09;101900.56;;;20.10;74.34
31062;BME280;17724;53.546;9.974;2023-05-21T09:18:27;101905.06;;;20.35;73.51
31062;BME280;17724;53.546;9.974;2023-05-21T09:22:47;101902.19;;;20.40;73.49
31062;BME280;17724;53.546;9.974;2023-05-21T09:26:48;101902.88;;;20.56;73.16
31062;BME280;17724;53.546;9.974;2023-05-21T09:30:53;101903.78;;;20.70;72.88
31062;BME280;17724;53.546;9.974;2023-05-21T09:34:53;101914.03;;;20.56;73.22
31062;BME280;17724;53.546;9.974;2023-05-21T09:38:54;101905.03;;;20.83;72.95
31062;BME280;17724;53.546;9.974;2023-05-21T09:42:57;101915.59;;;21.24;71.75
31062;BME280;17724;53.546;9.974;2023-05-21T09:46:59;101917.16;;;21.35;71.38
31062;BME280;17724;53.546;9.974;2023-05-21T09:51:12;101906.13;;;21.57;70.72
31062;BME280;17724;53.546;9.974;2023-05-21T09:55:13;101904.44;;;21.89;69.65
31062;BME280;17724;53.546;9.974;2023-05-21T09:59:14;101896.97;;;21.98;68.50
31062;BME280;17724;53.546;9.974;2023-05-21T10:03:15;101896.59;;;22.05;68.21
31062;BME280;17724;53.546;9.974;2023-05-21T10:07:21;101888.28;;;22.00;67.59
31062;BME280;17724;53.546;9.974;2023-05-21T10:11:26;101896.94;;;22.31;67.81
31062;BME280;17724;53.546;9.974;2023-05-21T10:15:31;101893.13;;;22.27;67.27
31062;BME280;17724;53.546;9.974;2023-05-21T10:19:34;101885.53;;;22.55;67.17
31062;BME280;17724;53.546;9.974;2023-05-21T10:23:36;101874.06;;;22.79;65.78
31062;BME280;17724;53.546;9.974;2023-05-21T10:27:38;101877.09;;;23.05;65.53
31062;BME280;17724;53.546;9.974;2023-05-21T10:31:38;101866.06;;;23.53;62.84
31062;BME280;17724;53.546;9.974;2023-05-21T10:35:40;101868.78;;;24.29;61.37
31062;BME280;17724;53.546;9.974;2023-05-21T10:39:42;101860.94;;;24.49;58.49
31062;BME280;17724;53.546;9.974;2023-05-21T10:43:55;101861.00;;;24.18;58.77
31062;BME280;17724;53.546;9.974;2023-05-21T10:56:45;101830.16;;;23.95;61.36
31062;BME280;17724;53.546;9.974;2023-05-21T11:00:51;101829.75;;;24.28;61.44
31062;BME280;17724;53.546;9.974;2023-05-21T11:05:00;101824.13;;;23.79;61.03
31062;BME280;17724;53.546;9.974;2023-05-21T11:09:14;101793.38;;;24.14;59.94
31062;BME280;17724;53.546;9.974;2023-05-21T11:13:15;101822.91;;;24.69;59.92
31062;BME280;17724;53.546;9.974;2023-05-21T11:17:38;101811.13;;;24.41;60.70
31062;BME280;17724;53.546;9.974;2023-05-21T11:21:39;101826.38;;;24.48;60.43
31062;BME280;17724;53.546;9.974;2023-05-21T11:25:40;101819.34;;;24.37;61.02
31062;BME280;17724;53.546;9.974;2023-05-21T11:29:42;101815.53;;;24.33;61.21
31062;BME280;17724;53.546;9.974;2023-05-21T11:33:46;101815.81;;;24.80;60.11
31062;BME280;17724;53.546;9.974;2023-05-21T11:37:48;101815.81;;;24.89;59.34
31062;BME280;17724;53.546;9.974;2023-05-21T11:45:56;101816.47;;;24.60;59.51
31062;BME280;17724;53.546;9.974;2023-05-21T11:49:58;101804.22;;;24.55;60.94
31062;BME280;17724;53.546;9.974;2023-05-21T11:53:59;101805.56;;;24.67;60.74
31062;BME280;17724;53.546;9.974;2023-05-21T11:58:00;101804.56;;;24.63;60.50
31062;BME280;17724;53.546;9.974;2023-05-21T12:02:02;101797.59;;;24.51;60.81
31062;BME280;17724;53.546;9.974;2023-05-21T12:06:06;101794.59;;;24.48;61.53
31062;BME280;17724;53.546;9.974;2023-05-21T12:10:07;101797.28;;;24.70;61.50
31062;BME280;17724;53.546;9.974;2023-05-21T12:14:11;101793.13;;;24.68;60.98
31062;BME280;17724;53.546;9.974;2023-05-21T12:18:14;101795.63;;;24.78;60.72
31062;BME280;17724;53.546;9.974;2023-05-21T12:22:15;101784.03;;;24.71;61.20
31062;BME280;17724;53.546;9.974;2023-05-21T12:26:16;101782.88;;;24.72;61.67
31062;BME280;17724;53.546;9.974;2023-05-21T12:30:17;101781.41;;;24.66;61.72
31062;BME280;17724;53.546;9.974;2023-05-21T12:34:44;101786.84;;;24.88;61.31
31062;BME280;17724;53.546;9.974;2023-05-21T12:38:45;101789.00;;;24.91;61.34
31062;BME280;17724;53.546;9.974;2023-05-21T12:42:46;101790.16;;;24.90;60.96
31062;BME280;17724;53.546;9.974;2023-05-21T12:46:47;101780.72;;;24.69;61.13
31062;BME280;17724;53.546;9.974;2023-05-21T12:50:51;101761.72;;;24.74;61.68
31062;BME280;17724;53.546;9.974;2023-05-21T12:54:55;101776.94;;;24.82;61.45
31062;BME280;17724;53.546;9.974;2023-05-21T12:58:56;101771.47;;;24.86;61.84
31062;BME280;17724;53.546;9.974;2023-05-21T13:02:56;101771.13;;;24.87;61.75
31062;BME280;17724;53.546;9.974;2023-05-21T13:06:59;101765.34;;;24.75;61.89
31062;BME280;17724;53.546;9.974;2023-05-21T13:11:01;101767.47;;;24.95;61.72
31062;BME280;17724;53.546;9.974;2023-05-21T13:15:03;101757.41;;;24.86;61.96
31062;BME280;17724;53.546;9.974;2023-05-21T13:19:04;101753.59;;;24.90;62.26
31062;BME280;17724;53.546;9.974;2023-05-21T13:23:04;101755.91;;;24.88;62.45
31062;BME280;17724;53.546;9.974;2023-05-21T13:27:05;101758.88;;;24.83;63.07
31062;BME280;17724;53.546;9.974;2023-05-21T13:31:06;101757.69;;;24.93;62.59
31062;BME280;17724;53.546;9.974;2023-05-21T13:35:07;101743.31;;;24.77;62.56
31062;BME280;17724;53.546;9.974;2023-05-21T13:39:08;101753.75;;;24.94;62.15
31062;BME280;17724;53.546;9.974;2023-05-21T13:43:08;101760.03;;;24.91;62.52
31062;BME280;17724;53.546;9.974;2023-05-21T13:47:09;101756.91;;;24.75;63.25
31062;BME280;17724;53.546;9.974;2023-05-21T13:51:11;101740.34;;;24.82;63.29
31062;BME280;17724;53.546;9.974;2023-05-21T13:55:11;101745.00;;;24.78;63.37
31062;BME280;17724;53.546;9.974;2023-05-21T13:59:14;101743.00;;;24.87;62.67
31062;BME280;17724;53.546;9.974;2023-05-21T14:03:15;101735.03;;;24.89;62.84
31062;BME280;17724;53.546;9.974;2023-05-21T14:07:16;101731.91;;;24.91;62.38
31062;BME280;17724;53.546;9.974;2023-05-21T14:11:16;101727.25;;;24.77;62.75
31062;BME280;17724;53.546;9.974;2023-05-21T14:15:17;101721.81;;;24.81;62.18
31062;BME280;17724;53.546;9.974;2023-05-21T14:19:17;101730.25;;;24.81;62.79
31062;BME280;17724;53.546;9.974;2023-05-21T14:23:18;101725.75;;;24.89;61.74
31062;BME280;17724;53.546;9.974;2023-05-21T14:27:19;101723.63;;;24.94;62.61
31062;BME280;17724;53.546;9.974;2023-05-21T14:31:19;101716.47;;;24.97;61.52
31062;BME280;17724;53.546;9.974;2023-05-21T14:35:22;101725.25;;;25.04;60.71
31062;BME280;17724;53.546;9.974;2023-05-21T14:39:22;101721.13;;;24.84;60.36
31062;BME280;17724;53.546;9.974;2023-05-21T14:43:23;101722.28;;;24.92;60.73
31062;BME280;17724;53.546;9.974;2023-05-21T14:47:23;101722.81;;;24.94;60.66
31062;BME280;17724;53.546;9.974;2023-05-21T14:51:24;101730.22;;;24.98;61.63
31062;BME280;17724;53.546;9.974;2023-05-21T14:55:24;101721.94;;;24.93;61.07
31062;BME280;17724;53.546;9.974;2023-05-21T14:59:26;101724.09;;;24.96;60.08
31062;BME280;17724;53.546;9.974;2023-05-21T15:03:26;101740.66;;;24.98;59.68
31062;BME280;17724;53.546;9.974;2023-05-21T15:07:27;101722.63;;;24.99;59.59
31062;BME280;17724;53.546;9.974;2023-05-21T15:11:27;101725.44;;;24.99;58.48
31062;BME280;17724;53.546;9.974;2023-05-21T15:15:28;101728.75;;;24.92;58.90
31062;BME280;17724;53.546;9.974;2023-05-21T15:19:28;101727.41;;;24.98;58.90
31062;BME280;17724;53.546;9.974;2023-05-21T15:23:29;101719.63;;;25.04;58.00
31062;BME280;17724;53.546;9.974;2023-05-21T15:27:29;101722.28;;;24.92;58.12
31062;BME280;17724;53.546;9.974;2023-05-21T15:31:30;101709.25;;;24.78;58.58
31062;BME280;17724;53.546;9.974;2023-05-21T15:35:31;101711.22;;;24.78;58.91
31062;BME280;17724;53.546;9.974;2023-05-21T15:39:31;101707.44;;;24.74;59.36
31062;BME280;17724;53.546;9.974;2023-05-21T15:43:32;101708.41;;;24.69;59.51
31062;BME280;17724;53.546;9.974;2023-05-21T15:47:32;101708.41;;;24.69;59.78
31062;BME280;17724;53.546;9.974;2023-05-21T15:51:33;101697.84;;;24.75;59.58
31062;BME280;17724;53.546;9.974;2023-05-21T15:55:33;101694.50;;;24.81;59.20
31062;BME280;17724;53.546;9.974;2023-05-21T15:59:34;101672.66;;;24.87;59.07
31062;BME280;17724;53.546;9.974;2023-05-21T16:03:35;101681.44;;;24.86;59.36
31062;BME280;17724;53.546;9.974;2023-05-21T16:07:35;101689.34;;;24.92;58.90
31062;BME280;17724;53.546;9.974;2023-05-21T16:11:36;101691.19;;;24.88;59.02
31062;BME280;17724;53.546;9.974;2023-05-21T16:15:36;101686.88;;;24.91;59.02
31062;BME280;17724;53.546;9.974;2023-05-21T16:19:37;101673.16;;;24.72;59.77
31062;BME280;17724;53.546;9.974;2023-05-21T16:23:38;101684.09;;;24.82;60.12
31062;BME280;17724;53.546;9.974;2023-05-21T16:27:39;101679.94;;;24.79;59.79
31062;BME280;17724;53.546;9.974;2023-05-21T16:31:39;101677.31;;;24.74;59.68
31062;BME280;17724;53.546;9.974;2023-05-21T16:35:40;101662.75;;;24.64;58.71
31062;BME280;17724;53.546;9.974;2023-05-21T16:39:40;101672.53;;;24.66;59.19
31062;BME280;17724;53.546;9.974;2023-05-21T16:43:41;101664.38;;;24.73;59.99
31062;BME280;17724;53.546;9.974;2023-05-21T16:47:41;101651.50;;;24.64;59.12
31062;BME280;17724;53.546;9.974;2023-05-21T16:51:42;101654.47;;;24.67;59.66
31062;BME280;17724;53.546;9.974;2023-05-21T16:55:43;101657.47;;;24.53;59.91
31062;BME280;17724;53.546;9.974;2023-05-21T16:59:43;101643.25;;;24.58;60.14
31062;BME280;17724;53.546;9.974;2023-05-21T17:03:44;101642.94;;;24.51;60.02
31062;BME280;17724;53.546;9.974;2023-05-21T17:07:45;101659.63;;;24.48;60.48
31062;BME280;17724;53.546;9.974;2023-05-21T17:11:45;101642.06;;;24.25;60.38
31062;BME280;17724;53.546;9.974;2023-05-21T17:15:46;101664.56;;;24.25;60.63
31062;BME280;17724;53.546;9.974;2023-05-21T17:19:46;101666.72;;;24.28;60.93
31062;BME280;17724;53.546;9.974;2023-05-21T17:23:47;101644.41;;;24.14;60.75
31062;BME280;17724;53.546;9.974;2023-05-21T17:27:47;101663.09;;;24.19;60.94
31062;BME280;17724;53.546;9.974;2023-05-21T17:31:48;101669.53;;;24.28;60.79
31062;BME280;17724;53.546;9.974;2023-05-21T17:35:48;101639.59;;;23.97;60.87
31062;BME280;17724;53.546;9.974;2023-05-21T17:39:52;101659.94;;;24.12;60.90
31062;BME280;17724;53.546;9.974;2023-05-21T17:43:53;101672.69;;;24.18;60.87
31062;BME280;17724;53.546;9.974;2023-05-21T17:47:53;101667.06;;;24.18;61.81
31062;BME280;17724;53.546;9.974;2023-05-21T17:51:54;101668.03;;;24.13;62.44
31062;BME280;17724;53.546;9.974;2023-05-21T17:55:54;101676.63;;;24.08;62.23
31062;BME280;17724;53.546;9.974;2023-05-21T17:59:55;101663.56;;;24.03;62.38
31062;BME280;17724;53.546;9.974;2023-05-21T18:03:56;101670.00;;;23.95;62.18
31062;BME280;17724;53.546;9.974;2023-05-21T18:07:58;101680.25;;;24.00;62.97
31062;BME280;17724;53.546;9.974;2023-05-21T18:11:59;101669.19;;;23.95;62.88
31062;BME280;17724;53.546;9.974;2023-05-21T18:15:59;101675.63;;;23.95;63.04
31062;BME280;17724;53.546;9.974;2023-05-21T18:20:03;101677.44;;;23.91;63.30
31062;BME280;17724;53.546;9.974;2023-05-21T18:24:04;101671.78;;;23.74;64.08
31062;BME280;17724;53.546;9.974;2023-05-21T18:28:07;101668.69;;;23.44;65.60
31062;BME280;17724;53.546;9.974;2023-05-21T18:32:07;101667.66;;;23.40;65.06
31062;BME280;17724;53.546;9.974;2023-05-21T18:36:10;101661.41;;;23.43;64.43
31062;BME280;17724;53.546;9.974;2023-05-21T18:40:11;101666.47;;;23.32;65.38
31062;BME280;17724;53.546;9.974;2023-05-21T18:44:12;101674.59;;;23.34;66.23
31062;BME280;17724;53.546;9.974;2023-05-21T18:48:12;101674.41;;;23.30;66.10
31062;BME280;17724;53.546;9.974;2023-05-21T18:52:13;101666.22;;;23.11;67.07
31062;BME280;17724;53.546;9.974;2023-05-21T18:56:13;101669.63;;;23.00;67.96
31062;BME280;17724;53.546;9.974;2023-05-21T19:00:14;101665.47;;;22.97;68.62
31062;BME280;17724;53.546;9.974;2023-05-21T19:04:15;101672.84;;;23.16;68.98
31062;BME280;17724;53.546;9.974;2023-05-21T19:08:16;101660.97;;;23.10;69.37
31062;BME280;17724;53.546;9.974;2023-05-21T19:12:17;101667.50;;;23.05;69.18
31062;BME280;17724;53.546;9.974;2023-05-21T19:16:18;101662.69;;;22.97;70.25
31062;BME280;17724;53.546;9.974;2023-05-21T19:20:24;101661.25;;;23.08;70.33
31062;BME280;17724;53.546;9.974;2023-05-21T19:24:27;101669.25;;;22.93;70.22
31062;BME280;17724;53.546;9.974;2023-05-21T19:28:28;101668.16;;;22.80;70.85
31062;BME280;17724;53.546;9.974;2023-05-21T19:32:28;101675.75;;;22.79;70.97
31062;BME280;17724;53.546;9.974;2023-05-21T19:36:30;101675.56;;;22.76;71.20
31062;BME280;17724;53.546;9.974;2023-05-21T19:40:30;101683.84;;;22.81;70.87
31062;BME280;17724;53.546;9.974;2023-05-21T19:44:31;101684.78;;;22.76;71.17
31062;BME280;17724;53.546;9.974;2023-05-21T19:48:32;101676.56;;;22.80;71.25
31062;BME280;17724;53.546;9.974;2023-05-21T19:52:34;101698.88;;;22.85;70.34
31062;BME280;17724;53.546;9.974;2023-05-21T19:56:34;101692.63;;;22.66;70.61
31062;BME280;17724;53.546;9.974;2023-05-21T20:00:38;101698.91;;;22.62;70.24
31062;BME280;17724;53.546;9.974;2023-05-21T20:04:39;101700.34;;;22.60;70.18
31062;BME280;17724;53.546;9.974;2023-05-21T20:08:40;101699.47;;;22.51;70.80
31062;BME280;17724;53.546;9.974;2023-05-21T20:12:41;101713.59;;;22.68;71.13
31062;BME280;17724;53.546;9.974;2023-05-21T20:16:41;101729.53;;;22.59;70.37
31062;BME280;17724;53.546;9.974;2023-05-21T20:20:44;101715.34;;;22.55;70.10
31062;BME280;17724;53.546;9.974;2023-05-21T20:24:46;101726.19;;;22.71;70.30
31062;BME280;17724;53.546;9.974;2023-05-21T20:28:46;101700.91;;;22.48;70.99
31062;BME280;17724;53.546;9.974;2023-05-21T20:32:47;101719.66;;;22.61;71.85
31062;BME280;17724;53.546;9.974;2023-05-21T20:36:47;101715.34;;;22.55;71.26
31062;BME280;17724;53.546;9.974;2023-05-21T20:40:48;101722.66;;;22.43;71.11
31062;BME280;17724;53.546;9.974;2023-05-21T20:44:48;101719.94;;;22.37;71.29
31062;BME280;17724;53.546;9.974;2023-05-21T20:48:52;101709.69;;;22.33;70.43
31062;BME280;17724;53.546;9.974;2023-05-21T20:52:52;101713.22;;;22.38;70.46
31062;BME280;17724;53.546;9.974;2023-05-21T20:56:53;101723.56;;;22.38;70.36
31062;BME280;17724;53.546;9.974;2023-05-21T21:00:54;101729.19;;;22.38;70.50
31062;BME280;17724;53.546;9.974;2023-05-21T21:04:54;101724.31;;;22.30;70.33
31062;BME280;17724;53.546;9.974;2023-05-21T21:08:55;101715.53;;;22.09;70.00
31062;BME280;17724;53.546;9.974;2023-05-21T21:12:56;101723.31;;;22.12;69.88
31062;BME280;17724;53.546;9.974;2023-05-21T21:16:56;101717.72;;;21.98;69.56